createdAt,value
2023-08-20T00:01:25.023Z,15.06
2023-08-20T00:04:11.247Z,15.04
2023-08-20T00:06:57.018Z,14.99
2023-08-20T00:09:42.711Z,14.93
2023-08-20T00:12:28.065Z,14.85
2023-08-20T00:15:14.250Z,14.76
2023-08-20T00:18:00.017Z,14.70
2023-08-20T00:20:46.866Z,14.63
2023-08-20T00:23:32.504Z,14.57
2023-08-20T00:26:18.521Z,14.55
2023-08-20T00:29:04.614Z,14.57
2023-08-20T00:31:50.110Z,14.55
2023-08-20T00:34:35.837Z,14.51
2023-08-20T00:37:21.561Z,14.48
2023-08-20T00:40:07.736Z,14.48
2023-08-20T00:42:54.617Z,14.45
2023-08-20T00:45:44.663Z,14.40
2023-08-20T00:48:31.054Z,14.36
2023-08-20T00:51:16.556Z,14.29
2023-08-20T00:54:04.131Z,14.19
2023-08-20T00:56:51.223Z,14.11
2023-08-20T00:59:38.094Z,14.02
2023-08-20T01:02:24.118Z,13.96
2023-08-20T01:05:12.786Z,13.89
2023-08-20T01:08:01.050Z,13.86
2023-08-20T01:11:25.071Z,13.81
2023-08-20T01:14:17.701Z,13.72
2023-08-20T01:17:03.672Z,13.65
2023-08-20T01:19:49.546Z,13.65
2023-08-20T01:22:47.319Z,13.64
2023-08-20T01:25:47.252Z,13.65
2023-08-20T01:28:33.316Z,13.64
2023-08-20T01:31:20.723Z,13.57
2023-08-20T01:34:06.224Z,13.51
2023-08-20T01:36:52.336Z,13.53
2023-08-20T01:39:38.064Z,13.67
2023-08-20T01:42:23.951Z,13.75
2023-08-20T01:45:09.925Z,13.83
2023-08-20T01:47:55.406Z,13.87
2023-08-20T01:50:41.472Z,13.91
2023-08-20T01:53:27.304Z,13.92
2023-08-20T01:56:14.103Z,13.93
2023-08-20T01:59:00.057Z,13.97
2023-08-20T02:01:45.584Z,13.95
2023-08-20T02:04:31.034Z,13.88
2023-08-20T02:07:16.699Z,13.81
2023-08-20T02:10:02.269Z,13.88
2023-08-20T02:12:48.118Z,13.91
2023-08-20T02:15:35.546Z,13.82
2023-08-20T02:18:20.899Z,13.71
2023-08-20T02:21:06.445Z,13.58
2023-08-20T02:23:51.901Z,13.53
2023-08-20T02:26:37.395Z,13.54
2023-08-20T02:29:23.048Z,13.47
2023-08-20T02:32:08.327Z,13.43
2023-08-20T02:34:54.772Z,13.31
2023-08-20T02:37:42.618Z,13.21
2023-08-20T02:40:30.812Z,13.20
2023-08-20T02:43:16.369Z,13.23
2023-08-20T02:46:01.933Z,13.29
2023-08-20T02:48:47.273Z,13.32
2023-08-20T02:51:32.963Z,13.30
2023-08-20T02:54:18.448Z,13.36
2023-08-20T02:57:04.164Z,13.46
2023-08-20T02:59:49.880Z,13.51
2023-08-20T03:02:35.317Z,13.55
2023-08-20T03:05:20.783Z,13.52
2023-08-20T03:08:06.857Z,13.51
2023-08-20T03:10:52.290Z,13.49
2023-08-20T03:13:37.848Z,13.46
2023-08-20T03:16:23.286Z,13.49
2023-08-20T03:19:09.253Z,13.51
2023-08-20T03:21:54.572Z,13.55
2023-08-20T03:24:40.253Z,13.57
2023-08-20T03:27:25.656Z,13.53
2023-08-20T03:30:11.446Z,13.49
2023-08-20T03:32:57.033Z,13.50
2023-08-20T03:35:43.378Z,13.48
2023-08-20T03:38:28.769Z,13.41
2023-08-20T03:41:14.381Z,13.34
2023-08-20T03:43:59.624Z,13.30
2023-08-20T03:46:45.014Z,13.28
2023-08-20T03:49:31.920Z,13.28
2023-08-20T03:52:17.399Z,13.25
2023-08-20T03:55:04.032Z,13.27
2023-08-20T03:57:49.592Z,13.34
2023-08-20T04:00:37.170Z,13.37
2023-08-20T04:03:23.195Z,13.43
2023-08-20T04:06:08.776Z,13.47
2023-08-20T04:08:56.200Z,13.47
2023-08-20T04:11:41.638Z,13.46
2023-08-20T04:14:29.113Z,13.47
2023-08-20T04:17:14.662Z,13.58
2023-08-20T04:20:00.148Z,13.61
2023-08-20T04:22:46.508Z,13.70
2023-08-20T04:25:32.560Z,13.76
2023-08-20T04:28:18.744Z,13.83
2023-08-20T04:31:04.354Z,13.87
2023-08-20T04:34:03.964Z,13.93
2023-08-20T04:37:10.733Z,13.97
2023-08-20T04:39:56.207Z,14.03
2023-08-20T04:42:42.789Z,14.06
2023-08-20T04:45:28.237Z,14.12
2023-08-20T04:48:13.835Z,14.17
2023-08-20T04:51:01.179Z,14.22
2023-08-20T04:53:48.526Z,14.24
2023-08-20T04:56:34.268Z,14.25
2023-08-20T04:59:19.665Z,14.24
2023-08-20T05:02:11.084Z,14.20
2023-08-20T05:05:00.599Z,14.17
2023-08-20T05:07:46.063Z,14.10
2023-08-20T05:10:32.608Z,14.07
2023-08-20T05:13:19.120Z,14.03
2023-08-20T05:16:04.919Z,13.97
2023-08-20T05:18:50.336Z,13.89
2023-08-20T05:21:35.856Z,13.82
2023-08-20T05:24:21.338Z,13.80
2023-08-20T05:27:18.469Z,13.82
2023-08-20T05:30:09.659Z,13.86
2023-08-20T05:32:55.417Z,13.90
2023-08-20T05:35:41.849Z,13.91
2023-08-20T05:38:27.941Z,13.90
2023-08-20T05:41:13.939Z,13.92
2023-08-20T05:43:59.459Z,13.92
2023-08-20T05:46:45.954Z,13.98
2023-08-20T05:49:32.645Z,14.07
2023-08-20T05:52:18.315Z,14.11
2023-08-20T05:55:04.398Z,14.14
2023-08-20T05:57:49.870Z,14.16
2023-08-20T06:00:35.298Z,14.21
2023-08-20T06:03:20.686Z,14.25
2023-08-20T06:06:08.204Z,14.33
2023-08-20T06:09:07.081Z,14.45
2023-08-20T06:11:54.608Z,14.54
2023-08-20T06:14:40.204Z,14.66
2023-08-20T06:17:25.718Z,14.76
2023-08-20T06:20:12.729Z,14.84
2023-08-20T06:22:58.220Z,14.90
2023-08-20T06:25:43.612Z,14.95
2023-08-20T06:28:29.464Z,15.01
2023-08-20T06:31:14.735Z,15.07
2023-08-20T06:34:00.249Z,15.14
2023-08-20T06:36:46.025Z,15.16
2023-08-20T06:39:31.557Z,15.21
2023-08-20T06:42:17.283Z,15.27
2023-08-20T06:45:02.664Z,15.34
2023-08-20T06:47:48.154Z,15.43
2023-08-20T06:50:33.784Z,15.54
2023-08-20T06:53:19.662Z,15.64
2023-08-20T06:56:05.371Z,15.76
2023-08-20T06:58:51.797Z,15.86
2023-08-20T07:01:37.634Z,16.01
2023-08-20T07:04:23.211Z,16.22
2023-08-20T07:07:09.274Z,16.38
2023-08-20T07:09:54.614Z,16.54
2023-08-20T07:12:40.204Z,16.61
2023-08-20T07:15:26.018Z,16.64
2023-08-20T07:18:14.376Z,16.63
2023-08-20T07:20:59.746Z,16.60
2023-08-20T07:23:45.152Z,16.56
2023-08-20T07:26:31.425Z,16.51
2023-08-20T07:29:17.049Z,16.50
2023-08-20T07:32:04.492Z,16.50
2023-08-20T07:34:50.107Z,16.54
2023-08-20T07:37:35.869Z,16.59
2023-08-20T07:40:21.753Z,16.72
2023-08-20T07:43:07.531Z,16.84
2023-08-20T07:45:53.007Z,16.96
2023-08-20T07:48:38.860Z,16.99
2023-08-20T07:51:24.405Z,17.02
2023-08-20T07:54:10.255Z,17.02
2023-08-20T07:56:55.948Z,17.07
2023-08-20T07:59:41.712Z,17.11
2023-08-20T08:02:27.194Z,17.14
2023-08-20T08:05:14.022Z,17.17
2023-08-20T08:07:59.536Z,17.20
2023-08-20T08:10:46.234Z,17.28
2023-08-20T08:13:31.842Z,17.33
2023-08-20T08:16:18.240Z,17.38
2023-08-20T08:19:03.789Z,17.42
2023-08-20T08:21:49.736Z,17.43
2023-08-20T08:24:35.085Z,17.45
2023-08-20T08:27:20.468Z,17.44
2023-08-20T08:30:06.832Z,17.46
2023-08-20T08:32:52.595Z,17.53
2023-08-20T08:35:38.062Z,17.63
2023-08-20T08:38:25.313Z,17.77
2023-08-20T08:41:14.487Z,17.88
2023-08-20T08:43:59.757Z,17.90
2023-08-20T08:46:45.484Z,17.95
2023-08-20T08:49:34.286Z,17.94
2023-08-20T08:52:20.771Z,17.99
2023-08-20T08:55:09.397Z,18.12
2023-08-20T08:57:55.261Z,18.22
2023-08-20T09:00:40.744Z,18.33
2023-08-20T09:03:27.362Z,18.44
2023-08-20T09:06:13.804Z,18.60
2023-08-20T09:09:07.621Z,18.71
2023-08-20T09:11:53.226Z,18.81
2023-08-20T09:14:38.788Z,18.77
2023-08-20T09:17:27.500Z,18.82
2023-08-20T09:20:13.287Z,18.71
2023-08-20T09:22:58.734Z,18.64
2023-08-20T09:25:45.049Z,18.63
2023-08-20T09:28:41.291Z,18.55
2023-08-20T09:31:40.327Z,18.58
2023-08-20T09:34:25.773Z,18.63
2023-08-20T09:37:16.146Z,18.66
2023-08-20T09:40:01.790Z,18.65
2023-08-20T09:42:48.484Z,18.66
2023-08-20T09:45:34.369Z,18.69
2023-08-20T09:48:21.577Z,18.68
2023-08-20T09:51:12.324Z,18.76
2023-08-20T09:54:12.687Z,18.89
2023-08-20T09:57:03.251Z,18.96
2023-08-20T09:59:49.887Z,19.07
2023-08-20T10:02:36.313Z,19.16
2023-08-20T10:05:24.382Z,19.23
2023-08-20T10:08:10.383Z,19.30
2023-08-20T10:10:56.244Z,19.27
2023-08-20T10:13:41.777Z,19.31
2023-08-20T10:16:29.177Z,19.36
2023-08-20T10:19:17.760Z,19.42
2023-08-20T10:22:04.879Z,19.54
2023-08-20T10:24:54.501Z,19.65
2023-08-20T10:27:45.460Z,19.73
2023-08-20T10:30:31.071Z,19.76
2023-08-20T10:33:19.726Z,19.69
2023-08-20T10:36:16.968Z,19.60
2023-08-20T10:39:06.429Z,19.51
2023-08-20T10:42:10.375Z,19.38
2023-08-20T10:45:06.603Z,19.26
2023-08-20T10:47:52.361Z,19.23
2023-08-20T10:50:38.140Z,19.29
2023-08-20T10:53:24.451Z,19.44
2023-08-20T10:56:12.559Z,19.50
2023-08-20T10:59:14.218Z,19.58
2023-08-20T11:02:00.552Z,19.68
2023-08-20T11:04:46.501Z,19.72
2023-08-20T11:07:33.242Z,19.82
2023-08-20T11:10:19.131Z,20.03
2023-08-20T11:13:07.091Z,19.98
2023-08-20T11:15:52.758Z,19.95
2023-08-20T11:18:38.184Z,19.97
2023-08-20T11:21:24.143Z,20.02
2023-08-20T11:24:10.483Z,20.09
2023-08-20T11:26:58.608Z,20.22
2023-08-20T11:29:44.897Z,20.33
2023-08-20T11:32:32.159Z,20.45
2023-08-20T11:35:18.267Z,20.58
2023-08-20T11:38:07.105Z,20.57
2023-08-20T11:40:53.017Z,20.56
2023-08-20T11:43:38.781Z,20.66
2023-08-20T11:46:25.786Z,20.69
2023-08-20T11:49:12.289Z,20.53
2023-08-20T11:51:58.181Z,20.38
2023-08-20T11:54:43.891Z,20.32
2023-08-20T11:57:31.270Z,20.20
2023-08-20T12:00:28.995Z,20.27
2023-08-20T12:03:14.539Z,20.30
2023-08-20T12:05:59.927Z,20.45
2023-08-20T12:08:45.343Z,20.61
2023-08-20T12:11:31.882Z,20.87
2023-08-20T12:14:21.166Z,21.11
2023-08-20T12:17:06.664Z,21.46
2023-08-20T12:19:51.966Z,21.63
2023-08-20T12:22:37.552Z,21.55
2023-08-20T12:25:22.951Z,21.31
2023-08-20T12:28:08.970Z,21.33
2023-08-20T12:30:54.969Z,21.28
2023-08-20T12:33:40.536Z,21.10
2023-08-20T12:36:26.360Z,21.02
2023-08-20T12:39:12.036Z,20.89
2023-08-20T12:41:57.584Z,20.96
2023-08-20T12:44:43.327Z,21.48
2023-08-20T12:47:28.676Z,21.97
2023-08-20T12:50:15.407Z,22.49
2023-08-20T12:53:01.105Z,22.88
2023-08-20T12:55:46.703Z,23.12
2023-08-20T12:58:32.488Z,23.04
2023-08-20T13:01:19.320Z,23.19
2023-08-20T13:04:05.180Z,23.31
2023-08-20T13:06:51.062Z,23.39
2023-08-20T13:09:37.033Z,23.12
2023-08-20T13:12:28.164Z,23.19
2023-08-20T13:15:14.319Z,23.37
2023-08-20T13:18:00.186Z,23.45
2023-08-20T13:20:45.962Z,23.39
2023-08-20T13:23:31.518Z,23.26
2023-08-20T13:26:17.009Z,23.13
2023-08-20T13:29:02.636Z,23.19
2023-08-20T13:31:48.426Z,23.59
2023-08-20T13:34:33.798Z,23.82
2023-08-20T13:37:19.303Z,24.07
2023-08-20T13:40:05.968Z,24.03
2023-08-20T13:42:51.822Z,24.34
2023-08-20T13:45:37.353Z,24.65
2023-08-20T13:48:22.811Z,24.82
2023-08-20T13:51:08.418Z,24.88
2023-08-20T13:53:54.020Z,24.77
2023-08-20T13:56:39.424Z,24.93
2023-08-20T13:59:25.243Z,25.00
2023-08-20T14:02:10.827Z,24.98
2023-08-20T14:04:56.455Z,24.40
2023-08-20T14:07:42.982Z,24.11
2023-08-20T14:10:28.704Z,24.29
2023-08-20T14:13:14.909Z,24.57
2023-08-20T14:16:01.624Z,24.75
2023-08-20T14:18:47.171Z,24.89
2023-08-20T14:21:32.587Z,25.06
2023-08-20T14:24:19.499Z,25.21
2023-08-20T14:27:04.950Z,25.31
2023-08-20T14:29:50.231Z,25.22
2023-08-20T14:32:38.306Z,25.27
2023-08-20T14:35:26.411Z,25.27
2023-08-20T14:38:12.394Z,25.23
2023-08-20T14:41:04.346Z,25.08
2023-08-20T14:43:50.533Z,25.16
2023-08-20T14:46:36.172Z,25.09
2023-08-20T14:49:21.509Z,25.16
2023-08-20T14:52:19.394Z,25.21
2023-08-20T14:55:09.544Z,25.35
2023-08-20T14:57:55.401Z,25.48
2023-08-20T15:00:41.108Z,25.59
2023-08-20T15:03:26.524Z,25.59
2023-08-20T15:06:11.961Z,25.59
2023-08-20T15:08:57.423Z,25.69
2023-08-20T15:11:45.969Z,25.57
2023-08-20T15:14:31.352Z,25.59
2023-08-20T15:17:16.860Z,25.71
2023-08-20T15:20:02.192Z,25.36
2023-08-20T15:22:47.771Z,24.78
2023-08-20T15:25:33.172Z,24.44
2023-08-20T15:28:18.654Z,24.21
2023-08-20T15:31:04.045Z,24.42
2023-08-20T15:33:49.480Z,24.78
2023-08-20T15:36:34.847Z,24.85
2023-08-20T15:39:20.173Z,24.73
2023-08-20T15:42:06.880Z,24.67
2023-08-20T15:44:52.706Z,24.70
2023-08-20T15:47:38.656Z,24.55
2023-08-20T15:50:24.892Z,24.09
2023-08-20T15:53:10.511Z,23.84
2023-08-20T15:55:55.980Z,23.70
2023-08-20T15:58:41.342Z,23.72
2023-08-20T16:01:29.116Z,23.92
2023-08-20T16:04:15.320Z,24.30
2023-08-20T16:07:00.790Z,24.45
2023-08-20T16:09:46.229Z,24.22
2023-08-20T16:12:31.658Z,23.96
2023-08-20T16:15:17.058Z,23.75
2023-08-20T16:18:03.019Z,23.73
2023-08-20T16:20:48.469Z,23.67
2023-08-20T16:23:33.850Z,23.51
2023-08-20T16:26:19.328Z,23.38
2023-08-20T16:29:04.773Z,23.23
2023-08-20T16:31:50.384Z,23.15
2023-08-20T16:34:35.857Z,23.14
2023-08-20T16:37:21.367Z,23.03
2023-08-20T16:40:09.237Z,22.94
2023-08-20T16:42:54.996Z,23.18
2023-08-20T16:45:40.671Z,23.50
2023-08-20T16:48:26.309Z,23.59
2023-08-20T16:51:11.872Z,23.63
2023-08-20T16:53:59.009Z,23.64
2023-08-20T16:56:44.689Z,23.58
2023-08-20T16:59:30.234Z,23.56
2023-08-20T17:02:15.810Z,23.51
2023-08-20T17:05:01.151Z,23.53
2023-08-20T17:07:46.417Z,23.46
2023-08-20T17:10:32.290Z,23.48
2023-08-20T17:13:18.173Z,23.44
2023-08-20T17:16:05.068Z,23.38
2023-08-20T17:18:52.269Z,23.17
2023-08-20T17:21:39.226Z,23.13
2023-08-20T17:24:26.478Z,23.05
2023-08-20T17:27:11.863Z,23.03
2023-08-20T17:29:57.219Z,23.09
2023-08-20T17:32:42.818Z,23.11
2023-08-20T17:35:28.148Z,23.03
2023-08-20T17:38:15.964Z,22.89
2023-08-20T17:41:04.821Z,22.76
2023-08-20T17:43:50.228Z,22.60
2023-08-20T17:46:49.569Z,22.55
2023-08-20T17:49:36.331Z,22.49
2023-08-20T17:52:23.048Z,22.41
2023-08-20T17:55:09.043Z,22.30
2023-08-20T17:57:54.386Z,22.23
2023-08-20T18:00:40.520Z,22.14
2023-08-20T18:03:26.281Z,21.98
2023-08-20T18:06:11.606Z,21.79
2023-08-20T18:08:57.109Z,21.71
2023-08-20T18:11:42.461Z,21.59
2023-08-20T18:14:28.138Z,21.50
2023-08-20T18:17:13.888Z,21.37
2023-08-20T18:19:59.358Z,21.17
2023-08-20T18:22:45.158Z,21.05
2023-08-20T18:25:30.485Z,20.86
2023-08-20T18:28:17.039Z,20.63
2023-08-20T18:31:04.103Z,20.48
2023-08-20T18:33:49.615Z,20.36
2023-08-20T18:36:35.220Z,20.24
2023-08-20T18:39:21.436Z,20.06
2023-08-20T18:42:07.174Z,19.87
2023-08-20T18:44:52.814Z,19.78
2023-08-20T18:47:38.343Z,19.70
2023-08-20T18:50:23.699Z,19.62
2023-08-20T18:53:09.187Z,19.47
2023-08-20T18:55:55.117Z,19.32
2023-08-20T18:58:40.825Z,19.19
2023-08-20T19:01:28.909Z,19.03
2023-08-20T19:04:14.257Z,18.90
2023-08-20T19:06:59.945Z,18.80
2023-08-20T19:09:45.359Z,18.73
2023-08-20T19:12:30.814Z,18.65
2023-08-20T19:15:16.791Z,18.52
2023-08-20T19:18:02.060Z,18.42
2023-08-20T19:20:48.656Z,18.34
2023-08-20T19:23:36.060Z,18.26
2023-08-20T19:26:23.088Z,18.15
2023-08-20T19:29:08.566Z,18.07
2023-08-20T19:31:54.540Z,17.94
2023-08-20T19:34:39.916Z,17.84
2023-08-20T19:37:25.389Z,17.77
2023-08-20T19:40:12.439Z,17.69
2023-08-20T19:42:57.866Z,17.58
2023-08-20T19:45:43.295Z,17.47
2023-08-20T19:48:29.283Z,17.41
2023-08-20T19:51:14.765Z,17.35
2023-08-20T19:54:00.257Z,17.24
2023-08-20T19:56:45.721Z,17.18
2023-08-20T19:59:31.180Z,17.09
2023-08-20T20:02:16.653Z,16.97
2023-08-20T20:05:02.169Z,16.83
2023-08-20T20:07:48.109Z,16.70
2023-08-20T20:10:33.701Z,16.56
2023-08-20T20:13:19.106Z,16.43
2023-08-20T20:16:05.517Z,16.30
2023-08-20T20:18:51.208Z,16.24
2023-08-20T20:21:37.585Z,16.17
2023-08-20T20:24:23.409Z,16.10
2023-08-20T20:27:09.743Z,16.03
2023-08-20T20:29:55.367Z,16.01
2023-08-20T20:32:41.705Z,15.97
2023-08-20T20:35:31.122Z,15.93
2023-08-20T20:38:17.175Z,15.96
2023-08-20T20:41:03.547Z,15.92
2023-08-20T20:43:49.278Z,15.88
2023-08-20T20:46:34.881Z,15.80
2023-08-20T20:49:20.426Z,15.73
2023-08-20T20:52:06.661Z,15.73
2023-08-20T20:54:52.142Z,15.67
2023-08-20T20:57:37.596Z,15.57
2023-08-20T21:00:23.136Z,15.49
2023-08-20T21:03:08.986Z,15.43
2023-08-20T21:05:54.337Z,15.36
2023-08-20T21:08:39.980Z,15.35
2023-08-20T21:11:25.862Z,15.28
2023-08-20T21:14:11.457Z,15.23
2023-08-20T21:16:56.954Z,15.17
2023-08-20T21:19:42.417Z,15.12
2023-08-20T21:22:27.822Z,15.07
2023-08-20T21:25:13.266Z,15.06
2023-08-20T21:27:59.098Z,15.01
2023-08-20T21:30:44.460Z,14.97
2023-08-20T21:33:30.493Z,15.02
2023-08-20T21:36:16.291Z,15.06
2023-08-20T21:39:01.947Z,15.07
2023-08-20T21:41:47.490Z,15.06
2023-08-20T21:44:33.261Z,15.06
2023-08-20T21:47:23.992Z,15.05
2023-08-20T21:50:09.975Z,15.01
2023-08-20T21:52:55.638Z,14.94
2023-08-20T21:55:41.118Z,14.87
2023-08-20T21:58:26.572Z,14.80
2023-08-20T22:01:12.273Z,14.73
2023-08-20T22:03:58.016Z,14.68
2023-08-20T22:06:43.510Z,14.64
2023-08-20T22:09:29.512Z,14.56
2023-08-20T22:12:15.345Z,14.52
2023-08-20T22:15:01.309Z,14.46
2023-08-20T22:17:46.744Z,14.46
2023-08-20T22:20:33.131Z,14.50
2023-08-20T22:23:19.969Z,14.48
2023-08-20T22:26:06.180Z,14.44
2023-08-20T22:28:51.870Z,14.38
2023-08-20T22:31:37.345Z,14.41
2023-08-20T22:34:22.901Z,14.50
2023-08-20T22:37:08.427Z,14.62
2023-08-20T22:39:53.702Z,14.74
2023-08-20T22:42:39.375Z,14.84
2023-08-20T22:45:25.096Z,14.91
2023-08-20T22:48:10.543Z,15.02
2023-08-20T22:50:56.127Z,15.10
2023-08-20T22:53:41.550Z,15.10
2023-08-20T22:56:27.125Z,15.11
2023-08-20T22:59:13.512Z,15.19
2023-08-20T23:01:59.136Z,15.22
2023-08-20T23:04:44.561Z,15.29
2023-08-20T23:07:29.984Z,15.39
2023-08-20T23:10:15.462Z,15.44
2023-08-20T23:13:00.903Z,15.40
2023-08-20T23:15:46.334Z,15.44
2023-08-20T23:18:31.887Z,15.44
2023-08-20T23:21:17.304Z,15.45
2023-08-20T23:24:02.898Z,15.46
2023-08-20T23:26:48.294Z,15.41
2023-08-20T23:29:33.728Z,15.38
2023-08-20T23:32:19.243Z,15.36
2023-08-20T23:35:05.110Z,15.37
2023-08-20T23:37:51.237Z,15.37
2023-08-20T23:40:36.870Z,15.37
2023-08-20T23:43:23.291Z,15.39
2023-08-20T23:46:09.418Z,15.37
2023-08-20T23:48:54.638Z,15.35
2023-08-20T23:51:40.106Z,15.36
2023-08-20T23:54:27.029Z,15.34
2023-08-20T23:57:12.295Z,15.35
2023-08-20T23:59:57.552Z,15.36
